createdAt,value
2019-01-18T00:00:40.065Z,7.33
2019-01-18T00:03:09.045Z,7.97
2019-01-18T00:05:38.100Z,10.85
2019-01-18T00:08:07.070Z,9.88
2019-01-18T00:10:35.948Z,10.15
2019-01-18T00:13:05.321Z,7.70
2019-01-18T00:15:34.283Z,9.28
2019-01-18T00:18:03.193Z,9.13
2019-01-18T00:20:32.085Z,8.75
2019-01-18T00:23:01.078Z,6.92
2019-01-18T00:25:29.939Z,5.80
2019-01-18T00:27:58.876Z,9.38
2019-01-18T00:30:27.940Z,4.50
2019-01-18T00:32:56.769Z,8.43
2019-01-18T00:35:25.833Z,8.35
2019-01-18T00:37:54.673Z,8.88
2019-01-18T00:40:23.748Z,9.90
2019-01-18T00:42:52.656Z,8.50
2019-01-18T00:45:21.671Z,7.80
2019-01-18T00:47:50.616Z,6.95
2019-01-18T00:50:19.606Z,3.52
2019-01-18T00:52:48.689Z,8.68
2019-01-18T00:55:17.685Z,8.03
2019-01-18T00:57:46.667Z,7.22
2019-01-18T01:00:18.556Z,9.28
2019-01-18T01:02:47.542Z,7.17
2019-01-18T01:05:17.315Z,9.38
2019-01-18T01:07:46.220Z,7.17
2019-01-18T01:10:15.334Z,7.67
2019-01-18T01:12:44.296Z,9.23
2019-01-18T01:15:15.779Z,7.78
2019-01-18T01:17:44.953Z,9.68
2019-01-18T01:20:15.289Z,11.78
2019-01-18T01:22:44.263Z,8.03
2019-01-18T01:25:13.353Z,6.78
2019-01-18T01:27:42.596Z,7.55
2019-01-18T01:30:14.916Z,10.60
2019-01-18T01:32:43.984Z,7.92
2019-01-18T01:35:13.075Z,11.00
2019-01-18T01:37:42.092Z,12.33
2019-01-18T01:40:22.580Z,10.43
2019-01-18T01:42:51.548Z,11.88
2019-01-18T01:45:20.625Z,6.37
2019-01-18T01:47:49.597Z,7.35
2019-01-18T01:50:20.523Z,10.05
2019-01-18T01:52:49.409Z,15.83
2019-01-18T01:55:18.784Z,7.58
2019-01-18T01:57:47.759Z,10.18
2019-01-18T02:00:21.848Z,10.28
2019-01-18T02:02:50.820Z,8.93
2019-01-18T02:05:19.894Z,9.03
2019-01-18T02:07:48.792Z,7.55
2019-01-18T02:10:18.300Z,8.90
2019-01-18T02:12:47.589Z,8.35
2019-01-18T02:15:18.848Z,8.78
2019-01-18T02:17:47.824Z,7.15
2019-01-18T02:20:18.454Z,9.23
2019-01-18T02:22:47.447Z,8.43
2019-01-18T02:25:16.421Z,9.58
2019-01-18T02:27:45.977Z,9.13
2019-01-18T02:30:21.589Z,8.80
2019-01-18T02:32:50.618Z,8.78
2019-01-18T02:35:19.641Z,10.32
2019-01-18T02:37:48.639Z,9.95
2019-01-18T02:40:17.672Z,8.23
2019-01-18T02:42:46.687Z,10.00
2019-01-18T02:45:17.716Z,9.35
2019-01-18T02:47:49.626Z,7.40
2019-01-18T02:50:21.823Z,8.35
2019-01-18T02:52:50.821Z,10.72
2019-01-18T02:55:19.821Z,6.83
2019-01-18T02:57:48.761Z,5.80
2019-01-18T03:00:22.704Z,6.45
2019-01-18T03:02:51.923Z,14.63
2019-01-18T03:05:23.284Z,8.70
2019-01-18T03:07:52.327Z,9.10
2019-01-18T03:10:27.203Z,8.28
2019-01-18T03:12:56.217Z,7.60
2019-01-18T03:15:25.304Z,8.00
2019-01-18T03:17:54.387Z,10.15
2019-01-18T03:20:23.406Z,11.65
2019-01-18T03:22:52.313Z,10.95
2019-01-18T03:25:26.639Z,7.62
2019-01-18T03:27:55.617Z,7.22
2019-01-18T03:30:24.619Z,8.68
2019-01-18T03:32:53.557Z,18.20
2019-01-18T03:35:23.264Z,8.85
2019-01-18T03:37:52.399Z,6.50
2019-01-18T03:40:21.611Z,7.72
2019-01-18T03:42:51.337Z,5.40
2019-01-18T03:45:20.670Z,13.32
2019-01-18T03:47:49.767Z,9.58
2019-01-18T03:50:20.873Z,6.75
2019-01-18T03:52:49.862Z,7.50
2019-01-18T03:55:18.963Z,5.87
2019-01-18T03:57:47.985Z,10.10
2019-01-18T04:00:25.846Z,8.33
2019-01-18T04:02:49.727Z,6.85
2019-01-18T04:05:18.735Z,13.72
2019-01-18T04:07:47.732Z,10.93
2019-01-18T04:10:18.158Z,9.85
2019-01-18T04:12:47.177Z,36.80
2019-01-18T04:15:17.568Z,9.65
2019-01-18T04:17:46.558Z,12.35
2019-01-18T04:20:16.676Z,12.60
2019-01-18T04:22:45.925Z,9.50
2019-01-18T04:25:18.240Z,7.30
2019-01-18T04:27:47.304Z,14.98
2019-01-18T04:30:18.225Z,10.40
2019-01-18T04:32:47.152Z,8.63
2019-01-18T04:35:16.170Z,8.35
2019-01-18T04:37:45.197Z,6.60
2019-01-18T04:40:17.002Z,6.35
2019-01-18T04:42:46.065Z,9.43
2019-01-18T04:45:15.080Z,10.28
2019-01-18T04:47:44.072Z,10.55
2019-01-18T04:50:15.398Z,8.38
2019-01-18T04:52:44.488Z,7.05
2019-01-18T04:55:13.609Z,9.38
2019-01-18T04:57:42.502Z,8.18
2019-01-18T05:00:15.091Z,5.87
2019-01-18T05:02:44.039Z,6.83
2019-01-18T05:05:13.041Z,5.53
2019-01-18T05:07:41.971Z,6.78
2019-01-18T05:10:12.293Z,8.75
2019-01-18T05:12:41.288Z,5.75
2019-01-18T05:15:12.828Z,8.30
2019-01-18T05:17:41.754Z,12.23
2019-01-18T05:20:11.136Z,9.23
2019-01-18T05:22:40.124Z,10.05
2019-01-18T05:25:10.650Z,11.25
2019-01-18T05:27:39.644Z,13.45
2019-01-18T05:30:21.341Z,31.93
2019-01-18T05:32:50.423Z,11.35
2019-01-18T05:35:19.465Z,16.82
2019-01-18T05:37:48.449Z,9.78
2019-01-18T05:40:18.320Z,12.20
2019-01-18T05:42:47.735Z,11.18
2019-01-18T05:45:18.245Z,15.88
2019-01-18T05:47:47.183Z,17.45
2019-01-18T05:50:18.299Z,10.98
2019-01-18T05:52:50.392Z,9.85
2019-01-18T05:55:19.407Z,13.72
2019-01-18T05:57:48.399Z,9.50
2019-01-18T06:00:40.462Z,17.20
2019-01-18T06:03:09.541Z,21.00
2019-01-18T06:05:43.360Z,9.85
2019-01-18T06:08:12.431Z,19.27
2019-01-18T06:10:41.465Z,16.27
2019-01-18T06:13:10.640Z,19.75
2019-01-18T06:15:40.588Z,7.90
2019-01-18T06:18:09.633Z,10.32
2019-01-18T06:20:38.635Z,15.15
2019-01-18T06:23:07.645Z,14.05
2019-01-18T06:25:36.746Z,9.60
2019-01-18T06:28:05.834Z,10.95
2019-01-18T06:30:34.824Z,13.50
2019-01-18T06:33:03.831Z,16.07
2019-01-18T06:35:32.845Z,19.60
2019-01-18T06:38:08.166Z,13.00
2019-01-18T06:40:37.105Z,14.65
2019-01-18T06:43:06.096Z,14.85
2019-01-18T06:45:35.188Z,18.80
2019-01-18T06:48:04.346Z,14.13
2019-01-18T06:50:33.445Z,10.98
2019-01-18T06:53:02.450Z,16.20
2019-01-18T06:55:31.365Z,12.43
2019-01-18T06:58:00.404Z,17.67
2019-01-18T07:00:31.545Z,10.65
2019-01-18T07:03:03.761Z,15.40
2019-01-18T07:05:32.782Z,24.23
2019-01-18T07:08:01.693Z,23.35
2019-01-18T07:10:30.765Z,14.53
2019-01-18T07:12:59.689Z,23.25
2019-01-18T07:15:28.671Z,19.67
2019-01-18T07:17:57.675Z,15.35
2019-01-18T07:20:26.709Z,15.03
2019-01-18T07:22:55.722Z,45.28
2019-01-18T07:25:26.877Z,56.48
2019-01-18T07:27:55.820Z,65.78
2019-01-18T07:30:39.256Z,63.85
2019-01-18T07:33:10.685Z,70.30
2019-01-18T07:35:39.990Z,45.67
2019-01-18T07:38:09.121Z,70.50
2019-01-18T07:40:38.126Z,48.55
2019-01-18T07:43:07.146Z,30.43
2019-01-18T07:45:36.281Z,21.48
2019-01-18T07:48:05.605Z,30.80
2019-01-18T07:50:34.577Z,17.95
2019-01-18T07:53:03.581Z,23.62
2019-01-18T07:55:32.521Z,21.42
2019-01-18T07:58:01.556Z,20.80
2019-01-18T08:00:30.966Z,17.30
2019-01-18T08:03:00.022Z,42.53
2019-01-18T08:05:31.119Z,24.83
2019-01-18T08:08:00.240Z,26.53
2019-01-18T08:10:29.294Z,8.43
2019-01-18T08:12:58.285Z,7.87
2019-01-18T08:15:28.512Z,5.20
2019-01-18T08:17:57.814Z,6.00
2019-01-18T08:20:28.250Z,6.60
2019-01-18T08:22:57.601Z,7.70
2019-01-18T08:25:26.653Z,7.90
2019-01-18T08:27:55.696Z,6.83
2019-01-18T08:30:26.460Z,9.17
2019-01-18T08:32:55.433Z,6.63
2019-01-18T08:35:25.172Z,11.00
2019-01-18T08:37:54.153Z,8.97
2019-01-18T08:40:25.658Z,10.23
2019-01-18T08:42:54.641Z,7.80
2019-01-18T08:45:26.429Z,11.37
2019-01-18T08:47:55.402Z,8.63
2019-01-18T08:50:24.475Z,8.17
2019-01-18T08:52:53.458Z,7.83
2019-01-18T08:55:22.454Z,7.27
2019-01-18T08:57:51.473Z,6.97
2019-01-18T09:00:22.167Z,8.87
2019-01-18T09:02:51.092Z,10.23
2019-01-18T09:05:22.270Z,11.23
2019-01-18T09:07:51.287Z,8.40
2019-01-18T09:10:21.161Z,21.03
2019-01-18T09:12:50.153Z,16.93
2019-01-18T09:15:19.117Z,8.63
2019-01-18T09:17:48.211Z,13.57
2019-01-18T09:20:23.701Z,8.37
2019-01-18T09:23:09.296Z,13.47
2019-01-18T09:25:38.610Z,7.60
2019-01-18T09:28:07.579Z,12.67
2019-01-18T09:30:36.669Z,6.83
2019-01-18T09:33:08.055Z,9.90
2019-01-18T09:35:37.761Z,10.10
2019-01-18T09:38:09.812Z,11.20
2019-01-18T09:40:38.892Z,10.80
2019-01-18T09:43:07.989Z,10.60
2019-01-18T09:45:37.005Z,8.83
2019-01-18T09:48:08.297Z,10.40
2019-01-18T09:50:37.320Z,10.77
2019-01-18T09:53:07.967Z,30.47
2019-01-18T09:55:37.037Z,63.43
2019-01-18T09:58:06.159Z,9.60
2019-01-18T10:00:38.056Z,14.87
2019-01-18T10:03:07.095Z,8.60
2019-01-18T10:05:36.111Z,11.07
2019-01-18T10:08:07.141Z,12.93
2019-01-18T10:10:36.169Z,11.67
2019-01-18T10:13:05.184Z,15.17
2019-01-18T10:15:39.722Z,11.93
2019-01-18T10:18:08.718Z,13.60
2019-01-18T10:20:37.773Z,9.50
2019-01-18T10:23:06.773Z,8.33
2019-01-18T10:25:35.729Z,13.03
2019-01-18T10:28:04.852Z,10.90
2019-01-18T10:30:35.110Z,11.57
2019-01-18T10:33:04.301Z,11.57
2019-01-18T10:35:33.234Z,9.43
2019-01-18T10:38:02.182Z,8.30
2019-01-18T10:40:31.315Z,7.03
2019-01-18T10:43:00.346Z,14.03
2019-01-18T10:45:29.385Z,13.60
2019-01-18T10:47:59.961Z,10.63
2019-01-18T10:50:31.173Z,10.57
2019-01-18T10:53:00.646Z,6.47
2019-01-18T10:55:29.661Z,9.37
2019-01-18T10:57:58.688Z,10.57
2019-01-18T11:00:33.516Z,10.73
2019-01-18T11:03:02.690Z,12.47
2019-01-18T11:05:31.768Z,11.23
2019-01-18T11:08:00.785Z,8.70
2019-01-18T11:10:29.770Z,10.17
2019-01-18T11:12:58.789Z,8.63
2019-01-18T11:15:29.794Z,9.67
2019-01-18T11:18:00.945Z,14.80
2019-01-18T11:20:33.232Z,21.23
2019-01-18T11:23:02.251Z,10.63
2019-01-18T11:25:31.946Z,11.87
2019-01-18T11:29:19.643Z,10.27
2019-01-18T11:34:48.921Z,9.53
2019-01-18T11:39:33.693Z,10.20
2019-01-18T11:42:05.312Z,6.40
2019-01-18T11:44:33.345Z,8.20
2019-01-18T11:47:02.360Z,5.87
2019-01-18T11:54:26.660Z,10.77
2019-01-18T11:56:56.553Z,10.83
2019-01-18T11:59:26.501Z,8.90
2019-01-18T12:01:56.380Z,15.17
2019-01-18T12:04:26.297Z,11.80
2019-01-18T12:06:56.088Z,10.77
2019-01-18T12:09:26.006Z,9.43
2019-01-18T12:11:55.836Z,10.87
2019-01-18T12:14:25.733Z,11.47
2019-01-18T12:16:55.669Z,5.43
2019-01-18T12:19:25.413Z,8.03
2019-01-18T12:21:55.277Z,8.93
2019-01-18T12:24:25.071Z,9.27
2019-01-18T12:26:54.889Z,5.53
2019-01-18T12:29:24.737Z,10.37
2019-01-18T12:31:54.625Z,6.10
2019-01-18T12:34:24.521Z,4.93
2019-01-18T12:36:58.967Z,5.53
2019-01-18T12:39:28.770Z,4.20
2019-01-18T12:41:58.570Z,6.87
2019-01-18T12:44:28.501Z,6.90
2019-01-18T12:46:58.404Z,7.13
2019-01-18T12:49:28.274Z,2.77
2019-01-18T12:51:58.161Z,2.87
2019-01-18T12:54:28.968Z,8.53
2019-01-18T12:56:58.905Z,5.00
2019-01-18T12:59:28.812Z,3.43
2019-01-18T13:01:58.691Z,4.63
2019-01-18T13:04:28.572Z,5.77
2019-01-18T13:06:58.317Z,8.00
2019-01-18T13:09:28.212Z,3.70
2019-01-18T13:11:58.093Z,3.07
2019-01-18T13:14:27.904Z,13.90
2019-01-18T13:16:57.765Z,21.13
2019-01-18T13:19:27.632Z,6.90
2019-01-18T13:21:57.415Z,9.03
2019-01-18T13:24:27.353Z,9.00
2019-01-18T13:26:57.224Z,14.23
2019-01-18T13:29:27.016Z,5.57
2019-01-18T13:31:56.887Z,5.43
2019-01-18T13:34:26.762Z,7.13
2019-01-18T13:36:56.625Z,6.23
2019-01-18T13:39:26.510Z,6.13
2019-01-18T13:41:56.389Z,10.17
2019-01-18T13:44:26.270Z,10.57
2019-01-18T13:46:56.059Z,7.07
2019-01-18T13:49:25.879Z,6.40
2019-01-18T13:51:55.755Z,8.03
2019-01-18T13:54:26.085Z,10.80
2019-01-18T13:56:56.025Z,10.20
2019-01-18T13:59:25.845Z,6.87
2019-01-18T14:01:55.742Z,6.83
2019-01-18T14:04:25.645Z,9.17
2019-01-18T14:06:55.444Z,9.50
2019-01-18T14:09:25.345Z,5.80
2019-01-18T14:11:55.869Z,7.60
2019-01-18T14:14:25.898Z,9.77
2019-01-18T14:16:55.814Z,6.87
2019-01-18T14:19:25.682Z,15.30
2019-01-18T14:21:55.614Z,8.97
2019-01-18T14:24:25.404Z,9.63
2019-01-18T14:26:55.291Z,7.53
2019-01-18T14:29:25.182Z,9.23
2019-01-18T14:31:54.997Z,5.93
2019-01-18T14:34:24.809Z,8.17
2019-01-18T14:36:54.711Z,6.17
2019-01-18T14:39:25.493Z,11.20
2019-01-18T14:41:55.392Z,12.37
2019-01-18T14:44:25.251Z,7.43
2019-01-18T14:46:55.273Z,8.33
2019-01-18T14:49:25.185Z,12.27
2019-01-18T14:51:55.066Z,7.90
2019-01-18T14:54:24.945Z,10.00
2019-01-18T14:56:54.740Z,8.20
2019-01-18T14:59:24.568Z,8.23
2019-01-18T15:01:54.476Z,8.30
2019-01-18T15:04:24.367Z,7.40
2019-01-18T15:06:54.237Z,10.93
2019-01-18T15:09:24.126Z,8.67
2019-01-18T15:11:54.002Z,8.17
2019-01-18T15:14:23.949Z,10.53
2019-01-18T15:16:53.769Z,6.73
2019-01-18T15:19:23.672Z,9.60
2019-01-18T15:21:53.573Z,12.03
2019-01-18T15:24:23.409Z,8.77
2019-01-18T15:26:53.390Z,13.50
2019-01-18T15:29:25.637Z,12.07
2019-01-18T15:31:55.541Z,7.80
2019-01-18T15:34:25.441Z,17.03
2019-01-18T15:36:55.354Z,12.73
2019-01-18T15:39:25.180Z,15.73
2019-01-18T15:41:55.011Z,13.10
2019-01-18T15:44:24.888Z,12.83
2019-01-18T15:46:54.753Z,11.93
2019-01-18T15:49:24.630Z,12.00
2019-01-18T15:51:54.593Z,14.75
2019-01-18T15:54:24.413Z,10.17
2019-01-18T15:56:54.332Z,9.93
2019-01-18T15:59:24.247Z,10.15
2019-01-18T16:01:54.084Z,50.03
2019-01-18T16:04:24.049Z,71.17
2019-01-18T16:06:53.880Z,62.05
2019-01-18T16:09:23.690Z,50.55
2019-01-18T16:11:53.645Z,34.08
2019-01-18T16:14:25.423Z,33.45
2019-01-18T16:17:03.703Z,33.53
2019-01-18T16:19:33.571Z,17.80
2019-01-18T16:22:03.471Z,14.15
2019-01-18T16:24:33.326Z,13.55
2019-01-18T16:27:03.245Z,14.03
2019-01-18T16:29:33.137Z,17.00
2019-01-18T16:32:02.951Z,15.83
2019-01-18T16:34:32.832Z,17.27
2019-01-18T16:37:02.737Z,16.27
2019-01-18T16:39:32.957Z,17.65
2019-01-18T16:42:02.988Z,12.15
2019-01-18T16:44:32.881Z,16.93
2019-01-18T16:47:02.866Z,9.18
2019-01-18T16:49:32.721Z,11.40
2019-01-18T16:52:02.546Z,18.67
2019-01-18T16:54:32.448Z,16.87
2019-01-18T16:57:04.752Z,19.77
2019-01-18T16:59:34.581Z,21.05
2019-01-18T17:02:04.600Z,15.30
2019-01-18T17:04:34.620Z,14.63
2019-01-18T17:07:04.562Z,12.88
2019-01-18T17:09:34.445Z,15.03
2019-01-18T17:12:04.340Z,16.12
2019-01-18T17:14:34.206Z,10.55
2019-01-18T17:17:04.185Z,14.05
2019-01-18T17:19:33.997Z,13.30
2019-01-18T17:22:03.989Z,19.98
2019-01-18T17:24:33.890Z,24.65
2019-01-18T17:27:03.899Z,21.68
2019-01-18T17:29:33.839Z,17.98
2019-01-18T17:32:03.760Z,18.17
2019-01-18T17:34:33.713Z,16.55
2019-01-18T17:37:13.439Z,19.82
2019-01-18T17:40:08.664Z,26.15
2019-01-18T17:43:21.656Z,27.37
2019-01-18T17:46:23.621Z,17.00
2019-01-18T17:49:22.914Z,19.32
2019-01-18T17:52:29.109Z,36.70
2019-01-18T17:55:31.890Z,47.23
2019-01-18T17:58:32.205Z,45.58
2019-01-18T18:01:32.060Z,22.82
2019-01-18T18:04:58.624Z,19.05
2019-01-18T18:08:08.303Z,15.13
2019-01-18T18:11:18.432Z,47.85
2019-01-18T18:14:07.412Z,68.33
2019-01-18T18:17:05.910Z,51.85
2019-01-18T18:20:50.342Z,108.05
2019-01-18T18:23:48.348Z,25.75
2019-01-18T18:26:31.696Z,25.15
2019-01-18T18:29:21.569Z,21.90
2019-01-18T18:32:39.697Z,29.63
2019-01-18T18:35:44.660Z,23.65
2019-01-18T18:38:37.876Z,14.03
2019-01-18T18:41:38.246Z,13.68
2019-01-18T18:44:33.197Z,19.12
2019-01-18T18:47:59.205Z,20.40
2019-01-18T18:51:25.232Z,22.07
2019-01-18T18:54:24.045Z,12.82
2019-01-18T18:57:22.137Z,19.32
2019-01-18T19:00:17.927Z,13.05
2019-01-18T19:03:28.559Z,13.15
2019-01-18T19:07:04.021Z,17.98
2019-01-18T19:09:51.291Z,26.07
2019-01-18T19:13:01.308Z,27.95
2019-01-18T19:16:03.268Z,26.12
2019-01-18T19:19:04.875Z,17.57
2019-01-18T19:21:57.209Z,15.00
2019-01-18T19:25:20.378Z,18.82
2019-01-18T19:28:27.444Z,16.32
2019-01-18T19:31:33.926Z,13.20
2019-01-18T19:34:47.972Z,12.73
2019-01-18T19:38:00.869Z,12.30
2019-01-18T19:40:36.322Z,11.15
2019-01-18T19:43:32.388Z,23.70
2019-01-18T19:46:31.049Z,13.83
2019-01-18T19:49:37.191Z,12.07
2019-01-18T19:52:44.148Z,10.78
2019-01-18T19:55:57.013Z,16.60
2019-01-18T19:58:54.570Z,16.07
2019-01-18T20:01:43.422Z,16.02
2019-01-18T20:04:53.324Z,20.32
2019-01-18T20:07:53.912Z,24.35
2019-01-18T20:11:06.771Z,17.17
2019-01-18T20:14:06.461Z,22.07
2019-01-18T20:17:17.647Z,28.32
2019-01-18T20:20:15.559Z,29.20
2019-01-18T20:23:12.928Z,24.43
2019-01-18T20:26:29.907Z,28.07
2019-01-18T20:29:32.502Z,20.88
2019-01-18T20:32:29.399Z,20.82
2019-01-18T20:35:43.899Z,19.75
2019-01-18T20:38:30.175Z,20.43
2019-01-18T20:41:50.865Z,23.95
2019-01-18T20:44:56.936Z,34.80
2019-01-18T20:48:06.829Z,29.57
2019-01-18T20:51:03.634Z,32.93
2019-01-18T20:54:08.417Z,29.07
2019-01-18T20:57:11.328Z,28.70
2019-01-18T21:00:40.637Z,26.35
2019-01-18T21:03:40.497Z,27.42
2019-01-18T21:06:46.741Z,19.27
2019-01-18T21:09:38.163Z,21.30
2019-01-18T21:12:43.884Z,23.25
2019-01-18T21:15:35.805Z,20.10
2019-01-18T21:18:16.637Z,24.72
2019-01-18T21:21:33.614Z,22.05
2019-01-18T21:24:56.084Z,17.10
2019-01-18T21:28:01.805Z,21.00
2019-01-18T21:31:20.343Z,23.15
2019-01-18T21:34:10.471Z,21.50
2019-01-18T21:37:04.521Z,21.62
2019-01-18T21:40:00.753Z,22.27
2019-01-18T21:43:19.812Z,19.55
2019-01-18T21:46:22.206Z,25.62
2019-01-18T21:49:40.417Z,33.78
2019-01-18T21:52:49.326Z,29.57
2019-01-18T21:55:59.198Z,46.13
2019-01-18T21:59:01.490Z,32.38
2019-01-18T22:01:56.952Z,31.60
2019-01-18T22:04:51.239Z,33.90
2019-01-18T22:07:35.911Z,35.20
2019-01-18T22:11:02.081Z,26.33
2019-01-18T22:13:43.476Z,23.73
2019-01-18T22:16:45.571Z,22.32
2019-01-18T22:20:05.378Z,25.30
2019-01-18T22:22:57.678Z,30.25
2019-01-18T22:25:57.617Z,24.47
2019-01-18T22:29:05.485Z,17.82
2019-01-18T22:32:17.902Z,25.85
2019-01-18T22:35:24.317Z,20.77
2019-01-18T22:38:18.589Z,27.67
2019-01-18T22:41:28.569Z,20.75
2019-01-18T22:44:34.655Z,22.30
2019-01-18T22:47:31.105Z,19.85
2019-01-18T22:50:35.148Z,23.73
2019-01-18T22:53:46.607Z,23.47
2019-01-18T22:57:00.196Z,19.98
2019-01-18T23:00:31.005Z,19.05
2019-01-18T23:03:28.265Z,31.40
2019-01-18T23:06:37.589Z,30.00
2019-01-18T23:09:35.696Z,30.40
2019-01-18T23:12:58.956Z,37.10
2019-01-18T23:16:23.879Z,36.55
2019-01-18T23:19:27.089Z,28.85
2019-01-18T23:22:25.641Z,26.77
2019-01-18T23:25:15.374Z,33.20
2019-01-18T23:28:50.565Z,31.82
2019-01-18T23:31:42.178Z,34.38
2019-01-18T23:34:40.246Z,29.90
2019-01-18T23:37:18.924Z,27.25
2019-01-18T23:40:17.576Z,28.17
2019-01-18T23:43:01.456Z,28.85
2019-01-18T23:46:09.649Z,23.60
2019-01-18T23:49:10.742Z,28.70
2019-01-18T23:52:01.800Z,21.37
2019-01-18T23:55:40.488Z,22.50
2019-01-18T23:58:45.805Z,29.02
